# Tabular Observed and Forecast Hydrograph Information
#
# Location: Sacramento River - Colusa Bridge (CLUC1)
#
# File Generation Time: 05/04/2026 at 07:03 AM PDT
# Data Interval: 1 Hour
#
# Most Recent Date & Time of Maximum Observed: 04/29/2026 at 07:00 AM PDT
# Maximum Observed Stage: 44.85 Feet
# Maximum Observed Flow: 9242 cfs
#
# Earliest Date & Time of Maximum Forecast: 05/07/2026 at 12:00 PM PDT
# Maximum Forecast Stage: 42.90 Feet
# Maximum Forecast Flow: 6809 cfs
#
# OBSERVED
#
# Date & Time (Local) Stage (Feet) Flow (cfs) Trend Observed Status
# ---------------------------------------------------------------------------------
04/29/2026 07 AM PDT 44.85 9242 Normal
04/29/2026 08 AM PDT 44.81 9194 - Normal
04/29/2026 09 AM PDT 44.78 9157 - Normal
04/29/2026 10 AM PDT 44.76 9133 - Normal
04/29/2026 11 AM PDT 44.71 9074 - Normal
04/29/2026 12 PM PDT 44.68 9038 - Normal
04/29/2026 01 PM PDT 44.66 9014 - Normal
04/29/2026 02 PM PDT 44.64 8990 - Normal
04/29/2026 03 PM PDT 44.60 8943 - Normal
04/29/2026 04 PM PDT 44.58 8920 - Normal
04/29/2026 05 PM PDT 44.57 8908 - Normal
04/29/2026 06 PM PDT 44.54 8873 - Normal
04/29/2026 07 PM PDT 44.52 8849 - Normal
04/29/2026 08 PM PDT 44.50 8826 - Normal
04/29/2026 09 PM PDT 44.48 8801 - Normal
04/29/2026 10 PM PDT 44.46 8777 - Normal
04/29/2026 11 PM PDT 44.45 8765 - Normal
04/30/2026 12 AM PDT 44.44 8752 - Normal
04/30/2026 01 AM PDT 44.41 8716 - Normal
04/30/2026 02 AM PDT 44.39 8692 - Normal
04/30/2026 03 AM PDT 44.37 8667 - Normal
04/30/2026 04 AM PDT 44.36 8655 - Normal
04/30/2026 05 AM PDT 44.33 8619 - Normal
04/30/2026 06 AM PDT 44.30 8583 - Normal
04/30/2026 07 AM PDT 44.25 8523 - Normal
04/30/2026 08 AM PDT 44.27 8547 + Normal
04/30/2026 09 AM PDT 44.24 8511 - Normal
04/30/2026 10 AM PDT 44.22 8487 - Normal
04/30/2026 11 AM PDT 44.20 8464 - Normal
04/30/2026 12 PM PDT 44.19 8452 - Normal
04/30/2026 01 PM PDT 44.08 8322 - Normal
04/30/2026 02 PM PDT 44.16 8416 + Normal
04/30/2026 03 PM PDT 44.13 8381 - Normal
04/30/2026 04 PM PDT 44.11 8357 - Normal
04/30/2026 05 PM PDT 44.11 8357 0 Normal
04/30/2026 06 PM PDT 44.09 8334 - Normal
04/30/2026 07 PM PDT 44.07 8310 - Normal
04/30/2026 08 PM PDT 44.07 8310 0 Normal
04/30/2026 09 PM PDT 44.05 8287 - Normal
04/30/2026 10 PM PDT 44.04 8275 - Normal
04/30/2026 11 PM PDT 44.03 8264 - Normal
05/01/2026 12 AM PDT 44.04 8275 + Normal
05/01/2026 01 AM PDT 44.02 8252 - Normal
05/01/2026 02 AM PDT 44.02 8252 0 Normal
05/01/2026 03 AM PDT 44.01 8241 - Normal
05/01/2026 04 AM PDT 44.01 8241 0 Normal
05/01/2026 05 AM PDT 43.98 8204 - Normal
05/01/2026 06 AM PDT 43.98 8204 0 Normal
05/01/2026 07 AM PDT 43.96 8179 - Normal
05/01/2026 08 AM PDT 43.91 8117 - Normal
05/01/2026 09 AM PDT 43.91 8117 0 Normal
05/01/2026 10 AM PDT 43.86 8056 - Normal
05/01/2026 11 AM PDT 43.83 8019 - Normal
05/01/2026 12 PM PDT 43.82 8007 - Normal
05/01/2026 01 PM PDT 43.78 7958 - Normal
05/01/2026 02 PM PDT 43.74 7910 - Normal
05/01/2026 03 PM PDT 43.72 7886 - Normal
05/01/2026 04 PM PDT 43.69 7850 - Normal
05/01/2026 05 PM PDT 43.66 7814 - Normal
05/01/2026 06 PM PDT 43.62 7766 - Normal
05/01/2026 07 PM PDT 43.60 7743 - Normal
05/01/2026 08 PM PDT 43.58 7719 - Normal
05/01/2026 09 PM PDT 43.59 7731 + Normal
05/01/2026 10 PM PDT 43.57 7707 - Normal
05/01/2026 11 PM PDT 43.55 7684 - Normal
05/02/2026 12 AM PDT 43.54 7672 - Normal
05/02/2026 01 AM PDT 43.53 7660 - Normal
05/02/2026 02 AM PDT 43.50 7625 - Normal
05/02/2026 03 AM PDT 43.51 7637 + Normal
05/02/2026 04 AM PDT 43.48 7597 - Normal
05/02/2026 05 AM PDT 43.48 7597 0 Normal
05/02/2026 06 AM PDT 43.46 7570 - Normal
05/02/2026 07 AM PDT 43.45 7556 - Normal
05/02/2026 08 AM PDT 43.42 7514 - Normal
05/02/2026 09 AM PDT 43.41 7501 - Normal
05/02/2026 10 AM PDT 43.38 7460 - Normal
05/02/2026 11 AM PDT 43.37 7446 - Normal
05/02/2026 12 PM PDT 43.34 7405 - Normal
05/02/2026 01 PM PDT 43.34 7405 0 Normal
05/02/2026 02 PM PDT 43.29 7338 - Normal
05/02/2026 03 PM PDT 43.27 7311 - Normal
05/02/2026 04 PM PDT 43.24 7271 - Normal
05/02/2026 05 PM PDT 43.24 7271 0 Normal
05/02/2026 06 PM PDT 43.20 7218 - Normal
05/02/2026 07 PM PDT 43.16 7165 - Normal
05/02/2026 08 PM PDT 43.15 7152 - Normal
05/02/2026 09 PM PDT 43.13 7126 - Normal
05/02/2026 10 PM PDT 43.11 7099 - Normal
05/02/2026 11 PM PDT 43.08 7060 - Normal
05/03/2026 12 AM PDT 43.06 7034 - Normal
05/03/2026 01 AM PDT 43.04 7008 - Normal
05/03/2026 02 AM PDT 43.01 6970 - Normal
05/03/2026 03 AM PDT 43.00 6957 - Normal
05/03/2026 04 AM PDT 42.98 6927 - Normal
05/03/2026 05 AM PDT 42.96 6897 - Normal
05/03/2026 06 AM PDT 42.94 6868 - Normal
05/03/2026 07 AM PDT 42.92 6838 - Normal
05/03/2026 08 AM PDT 42.90 6809 - Normal
05/03/2026 09 AM PDT 42.88 6780 - Normal
05/03/2026 10 AM PDT 42.86 6750 - Normal
05/03/2026 11 AM PDT 42.83 6707 - Normal
05/03/2026 12 PM PDT 42.84 6721 + Normal
05/03/2026 01 PM PDT 42.81 6678 - Normal
05/03/2026 02 PM PDT 42.80 6664 - Normal
05/03/2026 03 PM PDT 42.78 6635 - Normal
05/03/2026 04 PM PDT 42.79 6649 + Normal
05/03/2026 05 PM PDT 42.75 6592 - Normal
05/03/2026 06 PM PDT 42.75 6592 0 Normal
05/03/2026 07 PM PDT 42.74 6578 - Normal
05/03/2026 08 PM PDT 42.72 6549 - Normal
05/03/2026 09 PM PDT 42.71 6535 - Normal
05/03/2026 10 PM PDT 42.69 6507 - Normal
05/03/2026 11 PM PDT 42.67 6479 - Normal
05/04/2026 12 AM PDT 42.66 6465 - Normal
05/04/2026 01 AM PDT 42.65 6451 - Normal
05/04/2026 02 AM PDT 42.63 6423 - Normal
05/04/2026 03 AM PDT 42.63 6423 0 Normal
05/04/2026 04 AM PDT 42.62 6409 - Normal
05/04/2026 05 AM PDT 42.61 6395 - Normal
05/04/2026 06 AM PDT 42.61 6395 0 Normal
#
# FORECAST
#
# Date & Time (Local) Stage (Feet) Flow (cfs) Trend Forecast Status
# ---------------------------------------------------------------------------------
05/04/2026 07 AM PDT 42.60 6381 Normal
05/04/2026 08 AM PDT 42.60 6381 0 Normal
05/04/2026 09 AM PDT 42.60 6381 0 Normal
05/04/2026 10 AM PDT 42.60 6381 0 Normal
05/04/2026 11 AM PDT 42.60 6381 0 Normal
05/04/2026 12 PM PDT 42.60 6381 0 Normal
05/04/2026 01 PM PDT 42.60 6381 0 Normal
05/04/2026 02 PM PDT 42.60 6381 0 Normal
05/04/2026 03 PM PDT 42.60 6381 0 Normal
05/04/2026 04 PM PDT 42.60 6381 0 Normal
05/04/2026 05 PM PDT 42.60 6381 0 Normal
05/04/2026 06 PM PDT 42.60 6381 0 Normal
05/04/2026 07 PM PDT 42.61 6395 + Normal
05/04/2026 08 PM PDT 42.61 6395 0 Normal
05/04/2026 09 PM PDT 42.62 6409 + Normal
05/04/2026 10 PM PDT 42.62 6409 0 Normal
05/04/2026 11 PM PDT 42.63 6423 + Normal
05/05/2026 12 AM PDT 42.64 6437 + Normal
05/05/2026 01 AM PDT 42.64 6437 0 Normal
05/05/2026 02 AM PDT 42.64 6437 0 Normal
05/05/2026 03 AM PDT 42.65 6451 + Normal
05/05/2026 04 AM PDT 42.65 6451 0 Normal
05/05/2026 05 AM PDT 42.65 6451 0 Normal
05/05/2026 06 AM PDT 42.64 6437 - Normal
05/05/2026 07 AM PDT 42.64 6437 0 Normal
05/05/2026 08 AM PDT 42.63 6423 - Normal
05/05/2026 09 AM PDT 42.63 6423 0 Normal
05/05/2026 10 AM PDT 42.62 6409 - Normal
05/05/2026 11 AM PDT 42.62 6409 0 Normal
05/05/2026 12 PM PDT 42.61 6395 - Normal
05/05/2026 01 PM PDT 42.61 6395 0 Normal
05/05/2026 02 PM PDT 42.60 6381 - Normal
05/05/2026 03 PM PDT 42.60 6381 0 Normal
05/05/2026 04 PM PDT 42.59 6367 - Normal
05/05/2026 05 PM PDT 42.59 6367 0 Normal
05/05/2026 06 PM PDT 42.58 6354 - Normal
05/05/2026 07 PM PDT 42.58 6354 0 Normal
05/05/2026 08 PM PDT 42.57 6340 - Normal
05/05/2026 09 PM PDT 42.57 6340 0 Normal
05/05/2026 10 PM PDT 42.56 6326 - Normal
05/05/2026 11 PM PDT 42.56 6326 0 Normal
05/06/2026 12 AM PDT 42.56 6326 0 Normal
05/06/2026 01 AM PDT 42.55 6312 - Normal
05/06/2026 02 AM PDT 42.55 6312 0 Normal
05/06/2026 03 AM PDT 42.55 6312 0 Normal
05/06/2026 04 AM PDT 42.55 6312 0 Normal
05/06/2026 05 AM PDT 42.55 6312 0 Normal
05/06/2026 06 AM PDT 42.55 6312 0 Normal
05/06/2026 07 AM PDT 42.56 6326 + Normal
05/06/2026 08 AM PDT 42.57 6340 + Normal
05/06/2026 09 AM PDT 42.59 6367 + Normal
05/06/2026 10 AM PDT 42.60 6381 + Normal
05/06/2026 11 AM PDT 42.62 6409 + Normal
05/06/2026 12 PM PDT 42.64 6437 + Normal
05/06/2026 01 PM PDT 42.66 6465 + Normal
05/06/2026 02 PM PDT 42.68 6493 + Normal
05/06/2026 03 PM PDT 42.70 6521 + Normal
05/06/2026 04 PM PDT 42.72 6549 + Normal
05/06/2026 05 PM PDT 42.73 6563 + Normal
05/06/2026 06 PM PDT 42.75 6592 + Normal
05/06/2026 07 PM PDT 42.77 6620 + Normal
05/06/2026 08 PM PDT 42.78 6635 + Normal
05/06/2026 09 PM PDT 42.80 6664 + Normal
05/06/2026 10 PM PDT 42.81 6678 + Normal
05/06/2026 11 PM PDT 42.82 6692 + Normal
05/07/2026 12 AM PDT 42.83 6707 + Normal
05/07/2026 01 AM PDT 42.84 6721 + Normal
05/07/2026 02 AM PDT 42.85 6736 + Normal
05/07/2026 03 AM PDT 42.85 6736 0 Normal
05/07/2026 04 AM PDT 42.86 6750 + Normal
05/07/2026 05 AM PDT 42.87 6765 + Normal
05/07/2026 06 AM PDT 42.87 6765 0 Normal
05/07/2026 07 AM PDT 42.88 6780 + Normal
05/07/2026 08 AM PDT 42.88 6780 0 Normal
05/07/2026 09 AM PDT 42.89 6794 + Normal
05/07/2026 10 AM PDT 42.89 6794 0 Normal
05/07/2026 11 AM PDT 42.89 6794 0 Normal
05/07/2026 12 PM PDT 42.90 6809 + Normal
05/07/2026 01 PM PDT 42.90 6809 0 Normal
05/07/2026 02 PM PDT 42.90 6809 0 Normal
05/07/2026 03 PM PDT 42.90 6809 0 Normal
05/07/2026 04 PM PDT 42.90 6809 0 Normal
05/07/2026 05 PM PDT 42.90 6809 0 Normal
05/07/2026 06 PM PDT 42.90 6809 0 Normal
05/07/2026 07 PM PDT 42.90 6809 0 Normal
05/07/2026 08 PM PDT 42.90 6809 0 Normal
05/07/2026 09 PM PDT 42.90 6809 0 Normal
05/07/2026 10 PM PDT 42.90 6809 0 Normal
05/07/2026 11 PM PDT 42.90 6809 0 Normal
05/08/2026 12 AM PDT 42.90 6809 0 Normal
05/08/2026 01 AM PDT 42.90 6809 0 Normal
05/08/2026 02 AM PDT 42.90 6809 0 Normal
05/08/2026 03 AM PDT 42.90 6809 0 Normal
05/08/2026 04 AM PDT 42.90 6809 0 Normal
05/08/2026 05 AM PDT 42.90 6809 0 Normal
05/08/2026 06 AM PDT 42.90 6809 0 Normal
05/08/2026 07 AM PDT 42.90 6809 0 Normal
05/08/2026 08 AM PDT 42.90 6809 0 Normal
05/08/2026 09 AM PDT 42.89 6794 - Normal
05/08/2026 10 AM PDT 42.89 6794 0 Normal
05/08/2026 11 AM PDT 42.89 6794 0 Normal
05/08/2026 12 PM PDT 42.89 6794 0 Normal
05/08/2026 01 PM PDT 42.89 6794 0 Normal
05/08/2026 02 PM PDT 42.88 6780 - Normal
05/08/2026 03 PM PDT 42.88 6780 0 Normal
05/08/2026 04 PM PDT 42.88 6780 0 Normal
05/08/2026 05 PM PDT 42.88 6780 0 Normal
05/08/2026 06 PM PDT 42.88 6780 0 Normal
05/08/2026 07 PM PDT 42.88 6780 0 Normal
05/08/2026 08 PM PDT 42.88 6780 0 Normal
05/08/2026 09 PM PDT 42.87 6765 - Normal
05/08/2026 10 PM PDT 42.87 6765 0 Normal
05/08/2026 11 PM PDT 42.87 6765 0 Normal
05/09/2026 12 AM PDT 42.87 6765 0 Normal
05/09/2026 01 AM PDT 42.87 6765 0 Normal
05/09/2026 02 AM PDT 42.87 6765 0 Normal
05/09/2026 03 AM PDT 42.86 6750 - Normal
05/09/2026 04 AM PDT 42.86 6750 0 Normal
05/09/2026 05 AM PDT 42.86 6750 0 Normal
#
# NOTE 1: Stages are rounded to the nearest hundredth (.01) of a foot.
# NOTE 2: Flows are rounded to the nearest (1) cfs.
# NOTE 3: Trends are determined using hourly change in unrounded stage and flow.
# NOTE 4: Maximum Values are determined using unrounded stage and flow.
|